Time;durP1;ratioP1;P1;durP2;ratioP2;P2;SDS_P1;SDS_P2;PMS_P1;PMS_P2;Temp;Humidity;BMP_temperature;BMP_pressure;BME280_temperature;BME280_humidity;BME280_pressure;Samples;Min_cycle;Max_cycle;Signal;HPM_P1;HPM_P2
2021/12/01 00:01:02;;;;;;;;;4.33;4.33;;;;;-147.17;100.00;50334.16;5046739;28;52294;-69
2021/12/01 00:03:28;;;;;;;;;4.75;4.75;;;;;-147.17;100.00;50277.09;5048470;28;51184;-66
2021/12/01 00:05:53;;;;;;;;;5.00;5.00;;;;;-147.17;100.00;50334.16;5045809;28;51291;-67
2021/12/01 00:08:19;;;;;;;;;7.33;6.67;;;;;-147.17;100.00;50312.53;5045057;28;52169;-68
2021/12/01 00:10:46;;;;;;;;;5.50;5.50;;;;;-147.17;100.00;50310.56;5051782;28;51428;-69
2021/12/01 00:13:14;;;;;;;;;4.67;4.67;;;;;-147.17;100.00;50332.19;5063556;27;53103;-68
2021/12/01 00:15:41;;;;;;;;;4.25;4.00;;;;;-147.17;100.00;50312.53;5049955;28;51164;-68
2021/12/01 00:18:07;;;;;;;;;6.25;6.25;;;;;-147.17;100.00;50306.63;5046040;28;50976;-66
2021/12/01 00:20:33;;;;;;;;;7.00;7.00;;;;;-147.17;100.00;50296.78;5045172;28;51249;-63
2021/12/01 00:22:59;;;;;;;;;7.50;6.75;;;;;-147.17;100.00;50294.81;5041596;28;51973;-64
2021/12/01 00:25:26;;;;;;;;;5.00;4.50;;;;;-147.17;100.00;50279.06;5042811;28;51188;-64
2021/12/01 00:27:53;;;;;;;;;5.25;5.25;;;;;-147.17;100.00;50314.47;5046169;28;51254;-64
2021/12/01 00:30:19;;;;;;;;;7.50;6.00;;;;;-147.17;100.00;50332.19;5041481;28;51141;-63
2021/12/01 00:32:45;;;;;;;;;9.75;9.75;;;;;-147.17;100.00;50300.72;5043300;28;53820;-64
2021/12/01 00:35:10;;;;;;;;;5.00;4.67;;;;;-147.17;100.00;50300.72;5047924;28;51092;-66
2021/12/01 00:37:37;;;;;;;;;7.50;7.00;;;;;-147.17;100.00;50316.44;5045180;28;51286;-68
2021/12/01 00:40:08;;;;;;;;;8.00;6.33;;;;;-147.17;100.00;50294.81;5050171;28;51660;-67
2021/12/01 00:42:34;;;;;;;;;5.33;5.33;;;;;-147.17;100.00;50322.34;5051535;28;51112;-67
2021/12/01 00:45:06;;;;;;;;;7.00;7.00;;;;;-147.17;100.00;50267.25;5057644;28;51186;-67
2021/12/01 00:47:43;;;;;;;;;5.00;5.00;;;;;-147.17;100.00;50312.53;5039364;28;51167;-67
2021/12/01 00:50:14;;;;;;;;;7.00;5.00;;;;;-147.17;100.00;50296.78;5063392;28;51407;-66
2021/12/01 00:52:40;;;;;;;;;4.67;4.33;;;;;-147.17;100.00;50302.69;5046080;28;52251;-67
2021/12/01 00:55:07;;;;;;;;;5.00;5.00;;;;;-147.17;100.00;50284.97;5039792;28;51089;-66
2021/12/01 00:57:33;;;;;;;;;4.00;4.00;;;;;-147.17;100.00;50300.72;5033443;28;51209;-67
2021/12/01 00:59:58;;;;;;;;;8.00;8.00;;;;;-147.17;100.00;50296.78;5039182;28;51210;-67
2021/12/01 01:02:24;;;;;;;;;3.00;3.00;;;;;-147.17;100.00;50267.25;5034547;28;52041;-68
2021/12/01 01:04:49;;;;;;;;;5.25;5.25;;;;;-147.17;100.00;50249.53;5046316;28;50809;-67
2021/12/01 01:07:15;;;;;;;;;4.67;4.67;;;;;-147.17;100.00;50296.78;5047980;28;52703;-66
2021/12/01 01:09:43;;;;;;;;;4.00;3.33;;;;;-147.17;100.00;50290.88;5038465;28;50909;-66
2021/12/01 01:17:38;;;;;;;;;3.67;3.67;;;;;-147.17;100.00;50298.75;5043417;28;51203;-66
2021/12/01 01:20:10;;;;;;;;;5.00;5.00;;;;;-147.17;100.00;50296.78;5035995;28;51445;-67
2021/12/01 01:22:36;;;;;;;;;4.00;3.00;;;;;-147.17;100.00;50286.94;5033230;28;50970;-66
2021/12/01 01:25:03;;;;;;;;;4.00;4.00;;;;;-147.17;100.00;50298.75;5040370;28;51135;-67
2021/12/01 01:27:28;;;;;;;;;5.67;4.00;;;;;-147.17;100.00;50312.53;5043597;28;51202;-65
2021/12/01 01:29:54;;;;;;;;;3.00;3.00;;;;;-147.17;100.00;50300.72;5049231;28;51150;-67
2021/12/01 01:32:19;;;;;;;;;6.00;5.00;;;;;-147.17;100.00;50298.75;5033505;28;52125;-68
2021/12/01 01:34:45;;;;;;;;;4.67;4.67;;;;;-147.17;100.00;50300.72;5037367;28;51013;-68
2021/12/01 01:37:10;;;;;;;;;3.00;3.00;;;;;-147.17;100.00;50279.06;5034488;28;51050;-67
2021/12/01 01:39:35;;;;;;;;;5.33;4.67;;;;;-147.17;100.00;50318.41;5049346;28;51094;-67
2021/12/01 01:42:01;;;;;;;;;5.00;4.00;;;;;-147.17;100.00;50279.06;5040979;28;51163;-67
2021/12/01 01:44:26;;;;;;;;;5.25;5.25;;;;;-147.17;100.00;50283.00;5041180;28;50860;-67
2021/12/01 01:46:52;;;;;;;;;6.50;4.25;;;;;-147.17;100.00;50314.47;5053647;28;50884;-67
2021/12/01 01:49:19;;;;;;;;;5.00;5.00;;;;;-147.17;100.00;50296.78;5042346;28;51172;-66
2021/12/01 01:51:47;;;;;;;;;4.67;4.67;;;;;-147.17;100.00;50267.25;5043294;28;51996;-66
2021/12/01 01:54:13;;;;;;;;;4.00;4.00;;;;;-147.17;100.00;50259.38;5049083;28;51189;-66
2021/12/01 01:56:40;;;;;;;;;6.00;4.00;;;;;-147.17;100.00;50267.25;5039012;28;51071;-66
2021/12/01 01:59:06;;;;;;;;;8.00;7.00;;;;;-147.17;100.00;50263.31;5038408;28;51189;-67
2021/12/01 02:04:03;;;;;;;;;8.00;7.00;;;;;-147.17;100.00;50277.09;5044968;28;51062;-66
2021/12/01 02:06:31;;;;;;;;;7.67;7.67;;;;;-147.17;100.00;50269.22;5034436;28;51101;-66
2021/12/01 02:08:58;;;;;;;;;5.00;5.00;;;;;-147.17;100.00;50265.28;5036016;28;51152;-66
2021/12/01 02:11:25;;;;;;;;;8.00;7.00;;;;;-147.17;100.00;50288.91;5032966;28;52900;-66
2021/12/01 02:13:51;;;;;;;;;5.75;5.00;;;;;-147.17;100.00;50271.19;5036384;28;51045;-66
2021/12/01 02:16:18;;;;;;;;;6.75;6.75;;;;;-147.17;100.00;50241.66;5036394;28;51354;-66
2021/12/01 02:18:44;;;;;;;;;8.33;7.67;;;;;-147.17;100.00;50237.72;5045130;28;51460;-66
2021/12/01 02:21:14;;;;;;;;;8.00;5.00;;;;;-147.17;100.00;50249.53;5032698;28;51668;-67
2021/12/01 02:23:46;;;;;;;;;8.00;7.67;;;;;-147.17;100.00;50206.22;5033621;28;50872;-65
2021/12/01 02:26:13;;;;;;;;;8.00;8.00;;;;;-147.17;100.00;50231.81;5050095;28;51082;-67
2021/12/01 02:28:39;;;;;;;;;6.67;6.00;;;;;-147.17;100.00;50225.91;5064571;27;51325;-66
2021/12/01 02:31:05;;;;;;;;;9.00;8.00;;;;;-147.17;100.00;50235.75;5048942;28;54382;-67
2021/12/01 02:33:31;;;;;;;;;9.00;8.25;;;;;-147.17;100.00;50218.03;5041585;28;51139;-66
2021/12/01 02:35:56;;;;;;;;;9.00;9.00;;;;;-147.17;100.00;50166.84;5038221;28;51398;-67
2021/12/01 02:38:23;;;;;;;;;9.75;9.00;;;;;-147.17;100.00;50190.47;5039521;28;51030;-67
2021/12/01 02:40:50;;;;;;;;;8.50;8.50;;;;;-147.17;100.00;50160.94;5048571;28;51939;-65
2021/12/01 02:43:16;;;;;;;;;11.00;10.00;;;;;-147.17;100.00;50166.84;5033075;28;51035;-66
2021/12/01 02:45:41;;;;;;;;;13.50;11.00;;;;;-147.17;100.00;50206.22;5042332;28;51268;-66
2021/12/01 02:48:08;;;;;;;;;9.25;8.50;;;;;-147.17;100.00;50143.22;5037120;28;51248;-67
2021/12/01 02:50:33;;;;;;;;;14.00;10.75;;;;;-147.17;100.00;50143.22;5037517;28;51923;-67
2021/12/01 02:52:59;;;;;;;;;7.75;6.75;;;;;-147.17;100.00;50192.44;5033702;28;51045;-67
2021/12/01 02:55:28;;;;;;;;;8.00;8.00;;;;;-147.17;100.00;50149.13;5045411;28;51063;-66
2021/12/01 02:57:54;;;;;;;;;9.00;9.00;;;;;-147.17;100.00;50174.72;5039596;28;51428;-66
2021/12/01 03:00:22;;;;;;;;;10.00;9.50;;;;;-147.17;100.00;50155.03;5049179;28;51108;-66
2021/12/01 03:02:48;;;;;;;;;5.00;5.00;;;;;-147.17;100.00;50139.28;5042868;28;50961;-66
2021/12/01 03:05:15;;;;;;;;;8.50;8.50;;;;;-147.17;100.00;50143.22;5046125;28;51263;-67
2021/12/01 03:07:42;;;;;;;;;7.00;5.67;;;;;-147.17;100.00;50160.94;5035903;28;51328;-66
2021/12/01 03:10:08;;;;;;;;;7.33;7.00;;;;;-147.17;100.00;50151.09;5034550;28;52271;-66
2021/12/01 03:12:36;;;;;;;;;4.75;4.75;;;;;-147.17;100.00;50141.25;5036620;28;50993;-66
2021/12/01 03:15:03;;;;;;;;;5.00;4.75;;;;;-147.17;100.00;50135.34;5049961;28;51149;-66
2021/12/01 03:17:30;;;;;;;;;5.67;5.00;;;;;-147.17;100.00;50131.41;5051304;28;51299;-65
2021/12/01 03:19:56;;;;;;;;;4.00;3.75;;;;;-147.17;100.00;50135.34;5044365;28;51074;-66
2021/12/01 03:22:22;;;;;;;;;4.00;3.00;;;;;-147.17;100.00;50121.56;5049073;28;51147;-67
2021/12/01 03:24:48;;;;;;;;;4.50;4.25;;;;;-147.17;100.00;50135.34;5039603;28;51183;-67
2021/12/01 03:27:14;;;;;;;;;3.33;3.00;;;;;-147.17;100.00;50151.09;5035969;28;51096;-66
2021/12/01 03:29:39;;;;;;;;;2.67;2.33;;;;;-147.17;100.00;50135.34;5067477;28;51059;-66
2021/12/01 03:32:07;;;;;;;;;3.33;3.33;;;;;-147.17;100.00;50139.28;5035505;28;51078;-66
2021/12/01 03:34:34;;;;;;;;;3.33;3.00;;;;;-147.17;100.00;50147.16;5044254;28;51426;-66
2021/12/01 03:37:00;;;;;;;;;3.67;3.00;;;;;-147.17;100.00;50105.81;5055831;28;51092;-66
2021/12/01 03:39:25;;;;;;;;;3.00;3.00;;;;;-147.17;100.00;50129.44;5051909;28;51932;-67
2021/12/01 03:41:51;;;;;;;;;3.67;3.67;;;;;-147.17;100.00;50115.66;5035630;28;51114;-66
2021/12/01 03:44:16;;;;;;;;;2.67;2.67;;;;;-147.17;100.00;50145.19;5049617;28;51116;-66
2021/12/01 03:46:42;;;;;;;;;0.33;0.33;;;;;-147.17;100.00;50119.59;5037947;28;51252;-66
2021/12/01 03:49:07;;;;;;;;;2.00;2.00;;;;;-147.17;100.00;50137.31;5044441;28;51404;-65
2021/12/01 03:51:33;;;;;;;;;3.00;2.67;;;;;-147.17;100.00;50119.59;5055231;28;51206;-66
2021/12/01 03:53:58;;;;;;;;;2.67;2.67;;;;;-147.17;100.00;50097.94;5040767;28;51223;-67
2021/12/01 03:56:24;;;;;;;;;3.00;2.00;;;;;-147.17;100.00;50092.03;5046166;28;51163;-67
2021/12/01 03:58:49;;;;;;;;;2.67;2.67;;;;;-147.17;100.00;50064.50;5046327;28;51139;-66
2021/12/01 04:01:14;;;;;;;;;3.00;2.67;;;;;-147.17;100.00;50107.78;5039868;28;51161;-67
2021/12/01 04:03:40;;;;;;;;;3.00;3.00;;;;;-147.17;100.00;50115.66;5052704;28;51237;-66
2021/12/01 04:06:05;;;;;;;;;2.00;2.00;;;;;-147.17;100.00;50080.25;5054585;28;51235;-67
2021/12/01 04:08:33;;;;;;;;;2.00;2.00;;;;;-147.17;100.00;50064.50;5050143;28;51896;-67
2021/12/01 04:10:58;;;;;;;;;2.33;2.33;;;;;-147.17;100.00;50064.50;5037549;28;50887;-67
2021/12/01 04:13:23;;;;;;;;;2.00;2.00;;;;;-147.17;100.00;50048.75;5048666;28;51163;-65
2021/12/01 04:15:49;;;;;;;;;3.00;3.00;;;;;-147.17;100.00;50033.00;5050046;28;51236;-65
2021/12/01 04:18:15;;;;;;;;;3.67;3.00;;;;;-147.17;100.00;50062.53;5035214;28;54275;-66
2021/12/01 04:20:41;;;;;;;;;2.00;2.00;;;;;-147.17;100.00;50048.75;5037460;28;51040;-66
2021/12/01 04:23:07;;;;;;;;;4.00;3.00;;;;;-147.17;100.00;50056.63;5040168;28;51164;-65
2021/12/01 04:25:32;;;;;;;;;4.00;4.00;;;;;-147.17;100.00;50029.06;5053445;28;51134;-66
2021/12/01 04:27:58;;;;;;;;;4.33;4.33;;;;;-147.17;100.00;50001.50;5051730;28;51906;-66
2021/12/01 04:30:25;;;;;;;;;4.00;4.00;;;;;-147.17;100.00;50034.97;5043941;28;51066;-66
2021/12/01 04:32:51;;;;;;;;;3.00;3.00;;;;;-147.17;100.00;50033.00;5046019;28;51007;-66
2021/12/01 04:35:19;;;;;;;;;5.00;5.00;;;;;-147.17;100.00;50013.31;5051503;28;51315;-66
2021/12/01 04:37:46;;;;;;;;;6.33;4.67;;;;;-147.17;100.00;49983.78;5053259;28;51093;-67
2021/12/01 04:40:12;;;;;;;;;5.00;5.00;;;;;-147.17;100.00;50025.13;5047326;28;51102;-66
2021/12/01 04:42:38;;;;;;;;;5.00;5.00;;;;;-147.17;100.00;49983.78;5037656;28;51034;-67
2021/12/01 04:45:07;;;;;;;;;4.00;4.00;;;;;-147.17;100.00;49983.78;5043470;28;51456;-67
2021/12/01 04:47:37;;;;;;;;;1.00;1.00;;;;;-147.17;100.00;50017.25;5033890;28;50937;-66
2021/12/01 04:50:05;;;;;;;;;2.67;2.00;;;;;-147.17;100.00;49970.00;5046365;28;51090;-66
2021/12/01 04:52:30;;;;;;;;;3.25;3.25;;;;;-147.17;100.00;49981.81;5049149;28;51160;-67
2021/12/01 04:54:55;;;;;;;;;3.00;3.00;;;;;-147.17;100.00;49999.53;5047370;28;51067;-67
2021/12/01 04:57:21;;;;;;;;;3.00;3.00;;;;;-147.17;100.00;49985.75;5037830;28;51707;-67
2021/12/01 04:59:47;;;;;;;;;2.75;2.00;;;;;-147.17;100.00;49989.69;5044473;28;51345;-67
2021/12/01 05:02:12;;;;;;;;;3.50;3.00;;;;;-147.17;100.00;49987.72;5037653;28;51191;-67
2021/12/01 05:04:40;;;;;;;;;2.33;1.67;;;;;-147.17;100.00;49995.59;5052309;28;51042;-67
2021/12/01 05:07:06;;;;;;;;;1.67;1.67;;;;;-147.17;100.00;49995.59;5050276;28;52999;-66
2021/12/01 05:09:31;;;;;;;;;1.33;1.33;;;;;-147.17;100.00;49970.00;5029736;28;51758;-67
2021/12/01 05:11:56;;;;;;;;;2.00;2.00;;;;;-147.17;100.00;49962.13;5038341;28;51233;-66
2021/12/01 05:14:24;;;;;;;;;1.33;1.33;;;;;-147.17;100.00;49977.88;5046463;28;51245;-66
2021/12/01 05:16:50;;;;;;;;;1.00;1.00;;;;;-147.17;100.00;49964.09;5053920;28;52744;-67
2021/12/01 05:19:15;;;;;;;;;1.00;1.00;;;;;-147.17;100.00;49958.19;5042216;28;50993;-66
2021/12/01 05:21:41;;;;;;;;;1.00;1.00;;;;;-147.17;100.00;49944.41;5036088;28;51182;-66
2021/12/01 05:24:07;;;;;;;;;0.00;0.00;;;;;-147.17;100.00;49950.31;5048252;28;51040;-66
2021/12/01 05:26:33;;;;;;;;;1.00;1.00;;;;;-147.17;100.00;49956.22;5037977;28;51885;-66
2021/12/01 05:28:58;;;;;;;;;0.00;0.00;;;;;-147.17;100.00;49956.22;5045612;28;52552;-66
2021/12/01 05:31:24;;;;;;;;;0.67;0.67;;;;;-147.17;100.00;49968.03;5033650;28;50951;-68
2021/12/01 05:33:49;;;;;;;;;0.00;0.00;;;;;-147.17;100.00;49958.19;5040354;28;51230;-66
2021/12/01 05:36:15;;;;;;;;;1.00;1.00;;;;;-147.17;100.00;49964.09;5053889;28;54091;-66
2021/12/01 05:38:41;;;;;;;;;0.00;0.00;;;;;-147.17;100.00;49958.19;5038710;28;50890;-67
2021/12/01 05:41:06;;;;;;;;;1.00;1.00;;;;;-147.17;100.00;49956.22;5036449;28;51336;-65
2021/12/01 05:43:31;;;;;;;;;1.00;1.00;;;;;-147.17;100.00;49966.06;5051688;28;51511;-66
2021/12/01 05:45:57;;;;;;;;;0.33;0.33;;;;;-147.17;100.00;49944.41;5050757;28;51722;-66
2021/12/01 05:48:23;;;;;;;;;0.67;0.67;;;;;-147.17;100.00;49952.28;5044101;28;51112;-66
2021/12/01 05:50:48;;;;;;;;;0.00;0.00;;;;;-147.17;100.00;49950.31;5049787;28;51227;-66
2021/12/01 05:53:13;;;;;;;;;0.00;0.00;;;;;-147.17;100.00;49962.13;5038356;28;51229;-65
2021/12/01 05:55:40;;;;;;;;;0.00;0.00;;;;;-147.17;100.00;49973.94;5052400;28;52069;-65
2021/12/01 05:58:05;;;;;;;;;0.00;0.00;;;;;-147.17;100.00;49971.97;5050928;28;51179;-66
2021/12/01 06:00:31;;;;;;;;;0.00;0.00;;;;;-147.17;100.00;49942.44;5055150;28;51144;-66
2021/12/01 06:02:57;;;;;;;;;0.00;0.00;;;;;-147.17;100.00;49613.75;5052536;28;51120;-67
2021/12/01 06:05:22;;;;;;;;;0.00;0.00;;;;;-147.17;100.00;49676.72;5039287;28;51165;-66
2021/12/01 06:07:49;;;;;;;;;2.00;2.00;;;;;-147.17;100.00;49855.84;5035471;28;51152;-65
2021/12/01 06:10:16;;;;;;;;;1.00;0.00;;;;;-147.17;100.00;49899.16;5036936;28;51143;-67
2021/12/01 06:12:42;;;;;;;;;0.00;0.00;;;;;-147.17;100.00;49962.13;5034476;28;50981;-67
2021/12/01 06:15:09;;;;;;;;;0.00;0.00;;;;;-147.17;100.00;49942.44;5046114;28;52454;-65
2021/12/01 06:17:35;;;;;;;;;1.00;0.00;;;;;-147.17;100.00;49887.34;5033461;28;51144;-66
2021/12/01 06:20:00;;;;;;;;;0.00;0.00;;;;;-147.17;100.00;49912.94;5048763;28;51187;-66
2021/12/01 06:22:26;;;;;;;;;0.00;0.00;;;;;-147.17;100.00;49938.50;5033114;28;51265;-66
2021/12/01 06:24:51;;;;;;;;;0.00;0.00;;;;;-147.17;100.00;49952.28;5048314;28;52039;-66
2021/12/01 06:27:17;;;;;;;;;0.00;0.00;;;;;-147.17;100.00;49914.91;5054005;28;51013;-66
2021/12/01 06:29:44;;;;;;;;;0.00;0.00;;;;;-147.17;100.00;49940.47;5045373;28;50903;-66
2021/12/01 06:32:09;;;;;;;;;0.00;0.00;;;;;-147.17;100.00;49912.94;5036634;28;51104;-66
2021/12/01 06:34:34;;;;;;;;;0.00;0.00;;;;;-147.17;100.00;49934.56;5048375;28;51907;-67
2021/12/01 06:37:00;;;;;;;;;3.00;2.00;;;;;-147.17;100.00;49940.47;5052894;28;51085;-65
2021/12/01 06:39:25;;;;;;;;;0.00;0.00;;;;;-147.17;100.00;49916.88;5045129;28;51231;-65
2021/12/01 06:41:54;;;;;;;;;1.00;1.00;;;;;-147.17;100.00;49950.31;5052847;28;50915;-66
2021/12/01 06:44:20;;;;;;;;;0.00;0.00;;;;;-147.17;100.00;49930.63;5045860;28;51868;-66
2021/12/01 06:46:45;;;;;;;;;0.00;0.00;;;;;-147.17;100.00;49922.78;5032622;28;51073;-67
2021/12/01 06:49:11;;;;;;;;;0.00;0.00;;;;;-147.17;100.00;49950.31;5045426;28;51006;-66
2021/12/01 06:51:36;;;;;;;;;0.00;0.00;;;;;-147.17;100.00;49962.13;5050290;28;51307;-66
2021/12/01 06:54:01;;;;;;;;;0.00;0.00;;;;;-147.17;100.00;49977.88;5050979;28;52230;-66
2021/12/01 06:56:27;;;;;;;;;1.33;1.33;;;;;-147.17;100.00;49989.69;5047813;28;51041;-67
2021/12/01 06:58:52;;;;;;;;;0.00;0.00;;;;;-147.17;100.00;49942.44;5042653;28;51278;-67
2021/12/01 07:01:18;;;;;;;;;0.33;0.33;;;;;-147.17;100.00;49958.19;5047295;28;51047;-66
2021/12/01 07:03:43;;;;;;;;;1.67;1.67;;;;;-147.17;100.00;49975.91;5042697;28;51807;-66
2021/12/01 07:06:09;;;;;;;;;0.00;0.00;;;;;-147.17;100.00;49958.19;5055590;28;51012;-67
2021/12/01 07:08:35;;;;;;;;;5.33;5.33;;;;;-147.17;100.00;49962.13;5053765;28;51092;-66
2021/12/01 07:11:02;;;;;;;;;0.33;0.33;;;;;-147.17;100.00;49956.22;5052110;28;51478;-70
2021/12/01 07:13:31;;;;;;;;;1.00;1.00;;;;;-147.17;100.00;49971.97;5054428;28;52205;-70
2021/12/01 07:15:57;;;;;;;;;1.67;1.67;;;;;-147.17;100.00;49952.28;5048749;28;51083;-70
2021/12/01 07:18:23;;;;;;;;;0.67;0.67;;;;;-147.17;100.00;49952.28;5054289;28;51068;-70
2021/12/01 07:20:48;;;;;;;;;4.00;3.00;;;;;-147.17;100.00;49979.84;5055139;28;50951;-73
2021/12/01 07:23:14;;;;;;;;;2.00;2.00;;;;;-147.17;100.00;49954.25;5036268;28;55060;-72
2021/12/01 07:25:39;;;;;;;;;1.00;1.00;;;;;-147.17;100.00;49966.06;5050005;28;51051;-70
2021/12/01 07:28:05;;;;;;;;;2.00;1.00;;;;;-147.17;100.00;49966.06;5055137;28;50962;-70
2021/12/01 07:30:32;;;;;;;;;4.00;4.00;;;;;-147.17;100.00;49966.06;5037032;28;51428;-63
2021/12/01 07:32:57;;;;;;;;;2.00;2.00;;;;;-147.17;100.00;49946.38;5034758;28;52216;-63
2021/12/01 07:35:23;;;;;;;;;0.00;0.00;;;;;-147.17;100.00;49964.09;5050929;28;51121;-64
2021/12/01 07:37:49;;;;;;;;;0.00;0.00;;;;;-147.17;100.00;49928.66;5046336;28;51203;-64
2021/12/01 07:40:16;;;;;;;;;1.00;1.00;;;;;-147.17;100.00;49956.22;5048544;28;51259;-62
2021/12/01 07:42:41;;;;;;;;;0.00;0.00;;;;;-147.17;100.00;49997.56;5051140;28;52091;-62
2021/12/01 07:45:11;;;;;;;;;0.00;0.00;;;;;-147.17;100.00;49989.69;5049486;28;51167;-62
2021/12/01 07:47:36;;;;;;;;;2.33;2.33;;;;;-147.17;100.00;49997.56;5042045;28;51063;-63
2021/12/01 07:50:04;;;;;;;;;3.00;2.00;;;;;-147.17;100.00;49958.19;5053953;28;51029;-64
2021/12/01 07:52:31;;;;;;;;;2.00;2.00;;;;;-147.17;100.00;49997.56;5043042;28;52156;-63
2021/12/01 07:54:56;;;;;;;;;1.67;1.33;;;;;-147.17;100.00;49997.56;5053155;28;51173;-62
2021/12/01 07:57:22;;;;;;;;;3.67;3.00;;;;;-147.17;100.00;49977.88;5051667;28;51057;-63
2021/12/01 07:59:47;;;;;;;;;2.33;2.00;;;;;-147.17;100.00;49989.69;5043769;28;51012;-62
2021/12/01 08:02:13;;;;;;;;;2.00;2.00;;;;;-147.17;100.00;49997.56;5051529;28;51928;-64
2021/12/01 08:04:38;;;;;;;;;0.00;0.00;;;;;-147.17;100.00;49985.75;5054681;28;51056;-64
2021/12/01 08:07:04;;;;;;;;;0.67;0.00;;;;;-147.17;100.00;50044.81;5047358;28;51129;-62
2021/12/01 08:09:29;;;;;;;;;2.00;2.00;;;;;-147.17;100.00;50021.19;5046254;28;51175;-63
2021/12/01 08:11:56;;;;;;;;;0.00;0.00;;;;;-147.17;100.00;50023.16;5045570;28;51800;-63
2021/12/01 08:14:22;;;;;;;;;1.00;1.00;;;;;-147.17;100.00;50015.28;5054266;28;51145;-63
2021/12/01 08:16:48;;;;;;;;;2.00;1.00;;;;;-147.17;100.00;50009.38;5053302;28;51399;-62
2021/12/01 08:19:14;;;;;;;;;0.00;0.00;;;;;-147.17;100.00;50013.31;5046026;28;51854;-61
2021/12/01 08:21:39;;;;;;;;;1.00;1.00;;;;;-147.17;100.00;50029.06;5044371;28;51031;-66
2021/12/01 08:24:05;;;;;;;;;1.00;1.00;;;;;-147.17;100.00;50052.69;5055771;28;51154;-65
2021/12/01 08:26:30;;;;;;;;;0.00;0.00;;;;;-147.17;100.00;50017.25;5037985;28;51268;-63
2021/12/01 08:28:56;;;;;;;;;0.33;0.33;;;;;-147.17;100.00;50013.31;5042081;28;51283;-65
2021/12/01 08:31:22;;;;;;;;;1.00;1.00;;;;;-147.17;100.00;50017.25;5051574;28;51764;-62
2021/12/01 08:33:48;;;;;;;;;0.33;0.33;;;;;-147.17;100.00;50064.50;5054457;28;51010;-63
2021/12/01 08:36:14;;;;;;;;;0.00;0.00;;;;;-147.17;100.00;50038.91;5040957;28;51142;-64
2021/12/01 08:38:41;;;;;;;;;1.33;1.33;;;;;-147.17;100.00;50062.53;5044414;28;51017;-64
2021/12/01 08:41:07;;;;;;;;;1.00;1.00;;;;;-147.17;100.00;50005.44;5046083;28;51188;-63
2021/12/01 08:43:34;;;;;;;;;0.67;0.00;;;;;-147.17;100.00;50058.59;5035677;28;51105;-63
2021/12/01 08:46:00;;;;;;;;;0.67;0.67;;;;;-147.17;100.00;50056.63;5036776;28;51310;-62
2021/12/01 08:48:26;;;;;;;;;1.67;1.67;;;;;-147.17;100.00;50080.25;5035215;28;51524;-63
2021/12/01 08:50:52;;;;;;;;;0.67;0.67;;;;;-147.17;100.00;50046.78;5047647;28;52109;-63
2021/12/01 08:53:17;;;;;;;;;1.67;1.67;;;;;-147.17;100.00;50064.50;5060275;28;51088;-65
2021/12/01 08:55:44;;;;;;;;;2.00;1.00;;;;;-147.17;100.00;50095.97;5069973;27;50853;-64
2021/12/01 08:58:12;;;;;;;;;1.00;1.00;;;;;-147.17;100.00;50082.22;5039832;28;50999;-65
2021/12/01 09:00:44;;;;;;;;;1.00;0.67;;;;;-147.17;100.00;50092.03;5048840;28;51041;-62
2021/12/01 09:03:11;;;;;;;;;0.67;0.67;;;;;-147.17;100.00;50086.16;5041940;28;51349;-63
2021/12/01 09:05:37;;;;;;;;;1.00;1.00;;;;;-147.17;100.00;50094.00;5039120;28;51027;-63
2021/12/01 09:08:03;;;;;;;;;3.33;3.33;;;;;-147.17;100.00;50086.16;5061686;28;51251;-68
2021/12/01 09:10:28;;;;;;;;;3.00;2.00;;;;;-147.17;100.00;50088.13;5050634;28;51267;-65
2021/12/01 09:12:54;;;;;;;;;0.00;0.00;;;;;-147.17;100.00;50080.25;5040091;28;51078;-67
2021/12/01 09:15:19;;;;;;;;;7.67;6.67;;;;;-147.17;100.00;50131.41;5048161;28;51017;-74
2021/12/01 09:17:45;;;;;;;;;5.33;5.33;;;;;-147.17;100.00;50127.47;5046666;28;51422;-65
2021/12/01 09:20:12;;;;;;;;;2.00;1.67;;;;;-147.17;100.00;50105.81;5048017;28;51919;-66
2021/12/01 09:22:37;;;;;;;;;1.00;0.00;;;;;-147.17;100.00;50182.59;5048144;28;51128;-65
2021/12/01 09:25:03;;;;;;;;;1.67;1.67;;;;;-147.17;100.00;50170.78;5048165;28;51179;-70
2021/12/01 09:27:29;;;;;;;;;0.00;0.00;;;;;-147.17;100.00;50227.88;5038633;28;50923;-68
2021/12/01 09:29:54;;;;;;;;;1.00;0.00;;;;;-147.17;100.00;50312.53;5052207;28;51068;-67
2021/12/01 09:32:20;;;;;;;;;1.67;1.67;;;;;-147.17;100.00;50273.16;5051107;28;51208;-70
2021/12/01 09:34:46;;;;;;;;;0.33;0.00;;;;;-147.17;100.00;50257.41;5046361;28;51183;-70
2021/12/01 09:37:11;;;;;;;;;0.00;0.00;;;;;-147.17;100.00;50255.44;5045482;28;51158;-70
2021/12/01 09:39:37;;;;;;;;;0.00;0.00;;;;;-147.17;100.00;50220.00;5059202;28;52759;-70
2021/12/01 09:42:04;;;;;;;;;1.00;0.00;;;;;-147.17;100.00;50265.28;5049979;28;51055;-70
2021/12/01 09:44:30;;;;;;;;;0.33;0.00;;;;;-147.17;100.00;50273.16;5045476;28;51111;-70
2021/12/01 09:46:56;;;;;;;;;1.00;0.00;;;;;-147.17;100.00;50221.97;5031801;28;51055;-70
2021/12/01 09:49:23;;;;;;;;;1.00;1.00;;;;;-147.17;100.00;50235.75;5032259;28;51968;-69
2021/12/01 09:51:48;;;;;;;;;1.00;1.00;;;;;-147.17;100.00;50261.34;5045911;28;51437;-71
2021/12/01 09:54:13;;;;;;;;;0.00;0.00;;;;;-147.17;100.00;50298.75;5044874;28;51059;-70
2021/12/01 09:56:39;;;;;;;;;0.00;0.00;;;;;-147.17;100.00;50225.91;5040157;28;50963;-69
2021/12/01 09:59:04;;;;;;;;;1.67;1.67;;;;;-147.17;100.00;50200.31;5042192;28;51894;-69
2021/12/01 10:01:30;;;;;;;;;1.00;1.00;;;;;-147.17;100.00;50208.19;5030639;28;50998;-69
2021/12/01 10:03:56;;;;;;;;;1.00;1.00;;;;;-147.17;100.00;50206.22;5034998;28;51084;-70
2021/12/01 10:06:24;;;;;;;;;0.00;0.00;;;;;-147.17;100.00;50194.41;5039846;28;51140;-70
2021/12/01 10:08:52;;;;;;;;;1.00;0.33;;;;;-147.17;100.00;50221.97;5037574;28;51120;-70
2021/12/01 10:11:27;;;;;;;;;1.00;1.00;;;;;-147.17;100.00;50229.84;5032583;28;51040;-70
2021/12/01 10:14:04;;;;;;;;;1.00;1.00;;;;;-147.17;100.00;50221.97;5032268;28;51149;-69
2021/12/01 10:16:32;;;;;;;;;1.00;1.00;;;;;-147.17;100.00;50198.34;5032389;28;50901;-71
2021/12/01 10:19:01;;;;;;;;;0.00;0.00;;;;;-147.17;100.00;50271.19;5030464;28;51084;-70
2021/12/01 10:21:33;;;;;;;;;1.00;1.00;;;;;-147.17;100.00;50279.06;5040177;28;50959;-69
2021/12/01 10:24:03;;;;;;;;;0.00;0.00;;;;;-147.17;100.00;50261.34;5043074;28;51220;-69
2021/12/01 10:26:31;;;;;;;;;0.33;0.33;;;;;-147.17;100.00;50243.63;5015256;28;50965;-69
2021/12/01 10:29:05;;;;;;;;;1.00;1.00;;;;;-147.17;100.00;50261.34;5051110;28;53771;-70
2021/12/01 10:31:30;;;;;;;;;1.00;1.00;;;;;-147.17;100.00;50249.53;5051659;28;50969;-69
2021/12/01 10:34:12;;;;;;;;;2.00;1.00;;;;;-147.17;100.00;50202.28;5051888;28;51054;-69
2021/12/01 10:36:38;;;;;;;;;1.33;1.00;;;;;-147.17;100.00;50221.97;5040421;28;50880;-69
2021/12/01 10:39:05;;;;;;;;;1.00;0.33;;;;;-147.17;100.00;50204.25;5043567;28;52359;-69
2021/12/01 10:41:36;;;;;;;;;1.33;1.00;;;;;-147.17;100.00;50186.53;5043018;28;51029;-69
2021/12/01 10:44:12;;;;;;;;;3.00;2.00;;;;;-147.17;100.00;50166.84;5058518;28;51104;-69
2021/12/01 10:46:52;;;;;;;;;2.00;1.00;;;;;-147.17;100.00;50190.47;5043627;28;51335;-69
2021/12/01 10:49:32;;;;;;;;;3.00;3.00;;;;;-147.17;100.00;50160.94;5049550;28;53004;-69
2021/12/01 10:51:57;;;;;;;;;2.00;2.00;;;;;-147.17;100.00;50153.06;5050920;28;51122;-69
2021/12/01 10:54:23;;;;;;;;;4.00;3.00;;;;;-147.17;100.00;50099.91;5040711;28;51466;-69
2021/12/01 10:57:21;;;;;;;;;3.00;2.67;;;;;-147.17;100.00;50143.22;5035896;28;51057;-68
2021/12/01 10:59:49;;;;;;;;;2.67;2.67;;;;;-147.17;100.00;50139.28;5034958;28;51141;-69
2021/12/01 11:02:16;;;;;;;;;2.33;2.33;;;;;-147.17;100.00;50139.28;5043091;28;51040;-69
2021/12/01 11:04:44;;;;;;;;;5.00;5.00;;;;;-147.17;100.00;50127.47;5035256;28;51266;-69
2021/12/01 11:07:33;;;;;;;;;5.00;4.67;;;;;-147.17;100.00;50099.91;5048830;28;50978;-70
2021/12/01 11:10:18;;;;;;;;;5.00;5.00;;;;;-147.17;100.00;50058.59;5053345;28;53588;-70
2021/12/01 11:12:52;;;;;;;;;5.33;4.00;;;;;-147.17;100.00;50097.94;5040840;28;51164;-70
2021/12/01 11:15:24;;;;;;;;;3.00;3.00;;;;;-147.17;100.00;50147.16;5048276;28;51333;-69